sensor_id;sensor_type;location;lat;lon;timestamp;P1;durP1;ratioP1;P2;durP2;ratioP2
15536;SDS011;7870;52.448;13.270;2023-04-03T00:01:25;8.40;;;2.38;;
15536;SDS011;7870;52.448;13.270;2023-04-03T00:03:52;5.50;;;1.88;;
15536;SDS011;7870;52.448;13.270;2023-04-03T00:06:19;7.80;;;2.17;;
15536;SDS011;7870;52.448;13.270;2023-04-03T00:08:45;7.47;;;2.22;;
15536;SDS011;7870;52.448;13.270;2023-04-03T00:11:12;9.23;;;2.60;;
15536;SDS011;7870;52.448;13.270;2023-04-03T00:13:39;8.88;;;2.35;;
15536;SDS011;7870;52.448;13.270;2023-04-03T00:16:06;6.82;;;2.40;;
15536;SDS011;7870;52.448;13.270;2023-04-03T00:18:34;9.02;;;2.55;;
15536;SDS011;7870;52.448;13.270;2023-04-03T00:21:00;7.70;;;2.80;;
15536;SDS011;7870;52.448;13.270;2023-04-03T00:23:27;9.93;;;2.80;;
15536;SDS011;7870;52.448;13.270;2023-04-03T00:25:54;6.63;;;2.80;;
15536;SDS011;7870;52.448;13.270;2023-04-03T00:28:21;6.68;;;2.30;;
15536;SDS011;7870;52.448;13.270;2023-04-03T00:30:48;5.68;;;1.80;;
15536;SDS011;7870;52.448;13.270;2023-04-03T00:33:15;6.30;;;2.42;;
15536;SDS011;7870;52.448;13.270;2023-04-03T00:35:42;6.45;;;1.92;;
15536;SDS011;7870;52.448;13.270;2023-04-03T00:38:09;6.40;;;2.08;;
15536;SDS011;7870;52.448;13.270;2023-04-03T00:40:36;5.97;;;3.33;;
15536;SDS011;7870;52.448;13.270;2023-04-03T00:43:10;6.90;;;2.20;;
15536;SDS011;7870;52.448;13.270;2023-04-03T00:45:39;5.38;;;1.98;;
15536;SDS011;7870;52.448;13.270;2023-04-03T00:48:08;7.85;;;2.63;;
15536;SDS011;7870;52.448;13.270;2023-04-03T00:50:39;7.22;;;2.40;;
15536;SDS011;7870;52.448;13.270;2023-04-03T00:53:08;9.27;;;2.20;;
15536;SDS011;7870;52.448;13.270;2023-04-03T00:55:44;6.40;;;2.50;;
15536;SDS011;7870;52.448;13.270;2023-04-03T00:58:13;9.35;;;2.60;;
15536;SDS011;7870;52.448;13.270;2023-04-03T01:00:43;6.90;;;2.28;;
15536;SDS011;7870;52.448;13.270;2023-04-03T01:03:12;6.38;;;2.17;;
15536;SDS011;7870;52.448;13.270;2023-04-03T01:05:39;5.03;;;1.95;;
15536;SDS011;7870;52.448;13.270;2023-04-03T01:08:06;6.30;;;2.20;;
15536;SDS011;7870;52.448;13.270;2023-04-03T01:10:33;8.63;;;3.17;;
15536;SDS011;7870;52.448;13.270;2023-04-03T01:12:59;5.85;;;2.20;;
15536;SDS011;7870;52.448;13.270;2023-04-03T01:15:27;5.00;;;2.17;;
15536;SDS011;7870;52.448;13.270;2023-04-03T01:17:57;5.43;;;2.30;;
15536;SDS011;7870;52.448;13.270;2023-04-03T01:26:19;5.22;;;2.10;;
15536;SDS011;7870;52.448;13.270;2023-04-03T01:28:46;7.20;;;1.95;;
15536;SDS011;7870;52.448;13.270;2023-04-03T01:31:15;8.18;;;2.35;;
15536;SDS011;7870;52.448;13.270;2023-04-03T01:34:02;6.93;;;1.70;;
15536;SDS011;7870;52.448;13.270;2023-04-03T01:36:30;9.70;;;2.83;;
15536;SDS011;7870;52.448;13.270;2023-04-03T01:38:58;6.40;;;2.20;;
15536;SDS011;7870;52.448;13.270;2023-04-03T01:41:26;7.78;;;2.60;;
15536;SDS011;7870;52.448;13.270;2023-04-03T01:43:59;7.70;;;2.63;;
15536;SDS011;7870;52.448;13.270;2023-04-03T01:46:25;7.78;;;2.38;;
15536;SDS011;7870;52.448;13.270;2023-04-03T01:48:52;9.45;;;2.42;;
15536;SDS011;7870;52.448;13.270;2023-04-03T01:51:18;7.40;;;2.50;;
15536;SDS011;7870;52.448;13.270;2023-04-03T01:53:45;9.80;;;2.40;;
15536;SDS011;7870;52.448;13.270;2023-04-03T01:56:12;7.63;;;2.28;;
15536;SDS011;7870;52.448;13.270;2023-04-03T01:58:38;9.18;;;2.35;;
15536;SDS011;7870;52.448;13.270;2023-04-03T02:01:05;11.10;;;3.28;;
15536;SDS011;7870;52.448;13.270;2023-04-03T02:03:32;5.50;;;2.08;;
15536;SDS011;7870;52.448;13.270;2023-04-03T02:05:59;7.18;;;2.47;;
15536;SDS011;7870;52.448;13.270;2023-04-03T02:08:26;6.82;;;2.60;;
15536;SDS011;7870;52.448;13.270;2023-04-03T02:10:53;6.90;;;2.90;;
15536;SDS011;7870;52.448;13.270;2023-04-03T02:13:19;8.60;;;2.65;;
15536;SDS011;7870;52.448;13.270;2023-04-03T02:15:46;8.75;;;2.38;;
15536;SDS011;7870;52.448;13.270;2023-04-03T02:18:16;6.30;;;2.03;;
15536;SDS011;7870;52.448;13.270;2023-04-03T02:20:43;7.25;;;2.20;;
15536;SDS011;7870;52.448;13.270;2023-04-03T02:23:10;9.05;;;2.70;;
15536;SDS011;7870;52.448;13.270;2023-04-03T02:25:36;5.47;;;2.33;;
15536;SDS011;7870;52.448;13.270;2023-04-03T02:28:04;10.48;;;2.70;;
15536;SDS011;7870;52.448;13.270;2023-04-03T02:30:34;9.63;;;2.53;;
15536;SDS011;7870;52.448;13.270;2023-04-03T02:33:01;6.97;;;2.35;;
15536;SDS011;7870;52.448;13.270;2023-04-03T02:35:27;7.57;;;2.17;;
15536;SDS011;7870;52.448;13.270;2023-04-03T02:37:56;11.25;;;2.20;;
15536;SDS011;7870;52.448;13.270;2023-04-03T02:40:23;10.02;;;3.15;;
15536;SDS011;7870;52.448;13.270;2023-04-03T02:42:50;10.70;;;2.53;;
15536;SDS011;7870;52.448;13.270;2023-04-03T02:45:17;12.70;;;2.78;;
15536;SDS011;7870;52.448;13.270;2023-04-03T02:47:44;9.98;;;2.88;;
15536;SDS011;7870;52.448;13.270;2023-04-03T02:50:11;6.82;;;2.35;;
15536;SDS011;7870;52.448;13.270;2023-04-03T02:52:37;6.65;;;2.15;;
15536;SDS011;7870;52.448;13.270;2023-04-03T02:55:04;7.03;;;2.60;;
15536;SDS011;7870;52.448;13.270;2023-04-03T02:57:31;6.90;;;2.30;;
15536;SDS011;7870;52.448;13.270;2023-04-03T02:59:58;6.30;;;2.97;;
15536;SDS011;7870;52.448;13.270;2023-04-03T03:02:24;12.73;;;3.05;;
15536;SDS011;7870;52.448;13.270;2023-04-03T03:04:51;9.63;;;2.85;;
15536;SDS011;7870;52.448;13.270;2023-04-03T03:07:17;7.60;;;2.40;;
15536;SDS011;7870;52.448;13.270;2023-04-03T03:09:44;8.95;;;2.15;;
15536;SDS011;7870;52.448;13.270;2023-04-03T03:12:11;6.63;;;2.42;;
15536;SDS011;7870;52.448;13.270;2023-04-03T03:14:37;5.82;;;2.55;;
15536;SDS011;7870;52.448;13.270;2023-04-03T03:17:04;8.57;;;2.45;;
15536;SDS011;7870;52.448;13.270;2023-04-03T03:19:30;8.25;;;2.28;;
15536;SDS011;7870;52.448;13.270;2023-04-03T03:21:57;7.50;;;2.63;;
15536;SDS011;7870;52.448;13.270;2023-04-03T03:24:23;10.13;;;2.58;;
15536;SDS011;7870;52.448;13.270;2023-04-03T03:26:50;5.43;;;2.40;;
15536;SDS011;7870;52.448;13.270;2023-04-03T03:29:17;7.05;;;2.53;;
15536;SDS011;7870;52.448;13.270;2023-04-03T03:31:44;7.15;;;2.53;;
15536;SDS011;7870;52.448;13.270;2023-04-03T03:34:11;11.15;;;4.10;;
15536;SDS011;7870;52.448;13.270;2023-04-03T03:36:38;10.27;;;2.38;;
15536;SDS011;7870;52.448;13.270;2023-04-03T03:39:04;6.25;;;2.35;;
15536;SDS011;7870;52.448;13.270;2023-04-03T03:41:31;9.50;;;2.85;;
15536;SDS011;7870;52.448;13.270;2023-04-03T03:43:58;8.88;;;3.10;;
15536;SDS011;7870;52.448;13.270;2023-04-03T03:46:27;9.80;;;2.53;;
15536;SDS011;7870;52.448;13.270;2023-04-03T03:48:54;7.93;;;2.53;;
15536;SDS011;7870;52.448;13.270;2023-04-03T03:51:20;12.45;;;2.60;;
15536;SDS011;7870;52.448;13.270;2023-04-03T03:53:47;7.00;;;2.55;;
15536;SDS011;7870;52.448;13.270;2023-04-03T03:56:16;8.60;;;3.03;;
15536;SDS011;7870;52.448;13.270;2023-04-03T03:58:44;10.45;;;2.63;;
15536;SDS011;7870;52.448;13.270;2023-04-03T04:01:12;7.65;;;2.50;;
15536;SDS011;7870;52.448;13.270;2023-04-03T04:03:43;11.93;;;2.80;;
15536;SDS011;7870;52.448;13.270;2023-04-03T04:06:13;13.48;;;3.90;;
15536;SDS011;7870;52.448;13.270;2023-04-03T04:08:47;6.80;;;2.50;;
15536;SDS011;7870;52.448;13.270;2023-04-03T04:11:14;8.45;;;2.67;;
15536;SDS011;7870;52.448;13.270;2023-04-03T04:13:43;9.02;;;2.70;;
15536;SDS011;7870;52.448;13.270;2023-04-03T04:16:12;7.70;;;2.30;;
15536;SDS011;7870;52.448;13.270;2023-04-03T04:18:39;8.68;;;2.60;;
15536;SDS011;7870;52.448;13.270;2023-04-03T04:21:05;9.32;;;3.65;;
15536;SDS011;7870;52.448;13.270;2023-04-03T04:23:32;11.38;;;3.75;;
15536;SDS011;7870;52.448;13.270;2023-04-03T04:25:59;9.43;;;2.53;;
15536;SDS011;7870;52.448;13.270;2023-04-03T04:28:29;7.53;;;2.70;;
15536;SDS011;7870;52.448;13.270;2023-04-03T04:30:57;6.78;;;2.58;;
15536;SDS011;7870;52.448;13.270;2023-04-03T04:33:25;7.28;;;2.53;;
15536;SDS011;7870;52.448;13.270;2023-04-03T04:35:53;6.35;;;2.53;;
15536;SDS011;7870;52.448;13.270;2023-04-03T04:38:20;7.13;;;2.97;;
15536;SDS011;7870;52.448;13.270;2023-04-03T04:40:49;7.93;;;2.17;;
15536;SDS011;7870;52.448;13.270;2023-04-03T04:43:16;7.45;;;2.72;;
15536;SDS011;7870;52.448;13.270;2023-04-03T04:45:45;7.35;;;2.42;;
15536;SDS011;7870;52.448;13.270;2023-04-03T04:48:12;5.90;;;2.45;;
15536;SDS011;7870;52.448;13.270;2023-04-03T04:50:39;7.95;;;2.55;;
15536;SDS011;7870;52.448;13.270;2023-04-03T04:53:06;11.40;;;2.38;;
15536;SDS011;7870;52.448;13.270;2023-04-03T04:55:32;12.48;;;3.30;;
15536;SDS011;7870;52.448;13.270;2023-04-03T04:58:00;9.70;;;2.58;;
15536;SDS011;7870;52.448;13.270;2023-04-03T05:00:26;7.25;;;2.50;;
15536;SDS011;7870;52.448;13.270;2023-04-03T05:02:53;8.27;;;2.53;;
15536;SDS011;7870;52.448;13.270;2023-04-03T05:05:20;5.90;;;2.05;;
15536;SDS011;7870;52.448;13.270;2023-04-03T05:07:46;9.50;;;2.55;;
15536;SDS011;7870;52.448;13.270;2023-04-03T05:10:13;5.13;;;2.50;;
15536;SDS011;7870;52.448;13.270;2023-04-03T05:12:40;7.40;;;2.47;;
15536;SDS011;7870;52.448;13.270;2023-04-03T05:15:07;7.60;;;2.50;;
15536;SDS011;7870;52.448;13.270;2023-04-03T05:17:35;12.65;;;2.55;;
15536;SDS011;7870;52.448;13.270;2023-04-03T05:20:04;9.45;;;3.03;;
15536;SDS011;7870;52.448;13.270;2023-04-03T05:22:31;6.63;;;2.17;;
15536;SDS011;7870;52.448;13.270;2023-04-03T05:25:04;7.47;;;2.58;;
15536;SDS011;7870;52.448;13.270;2023-04-03T05:27:31;7.40;;;2.40;;
15536;SDS011;7870;52.448;13.270;2023-04-03T05:29:58;10.95;;;2.42;;
15536;SDS011;7870;52.448;13.270;2023-04-03T05:32:26;8.20;;;2.50;;
15536;SDS011;7870;52.448;13.270;2023-04-03T05:35:09;13.48;;;4.75;;
15536;SDS011;7870;52.448;13.270;2023-04-03T05:37:36;7.00;;;2.50;;
15536;SDS011;7870;52.448;13.270;2023-04-03T05:40:04;6.60;;;2.03;;
15536;SDS011;7870;52.448;13.270;2023-04-03T05:42:34;9.25;;;2.55;;
15536;SDS011;7870;52.448;13.270;2023-04-03T05:45:01;8.10;;;2.80;;
15536;SDS011;7870;52.448;13.270;2023-04-03T05:47:28;9.88;;;3.03;;
15536;SDS011;7870;52.448;13.270;2023-04-03T05:49:54;11.40;;;4.07;;
15536;SDS011;7870;52.448;13.270;2023-04-03T05:54:48;8.60;;;2.00;;
15536;SDS011;7870;52.448;13.270;2023-04-03T05:57:20;6.55;;;2.80;;
15536;SDS011;7870;52.448;13.270;2023-04-03T05:59:47;9.02;;;3.45;;
15536;SDS011;7870;52.448;13.270;2023-04-03T06:02:18;6.28;;;2.50;;
15536;SDS011;7870;52.448;13.270;2023-04-03T06:04:47;10.85;;;2.63;;
15536;SDS011;7870;52.448;13.270;2023-04-03T06:07:16;6.55;;;2.25;;
15536;SDS011;7870;52.448;13.270;2023-04-03T06:09:45;7.88;;;2.63;;
15536;SDS011;7870;52.448;13.270;2023-04-03T06:12:13;7.78;;;2.40;;
15536;SDS011;7870;52.448;13.270;2023-04-03T06:14:39;7.30;;;2.47;;
15536;SDS011;7870;52.448;13.270;2023-04-03T06:17:06;7.30;;;2.20;;
15536;SDS011;7870;52.448;13.270;2023-04-03T06:19:33;8.55;;;2.38;;
15536;SDS011;7870;52.448;13.270;2023-04-03T06:22:00;8.32;;;2.38;;
15536;SDS011;7870;52.448;13.270;2023-04-03T06:24:30;6.55;;;2.22;;
15536;SDS011;7870;52.448;13.270;2023-04-03T06:26:57;7.43;;;2.17;;
15536;SDS011;7870;52.448;13.270;2023-04-03T06:29:23;8.00;;;2.75;;
15536;SDS011;7870;52.448;13.270;2023-04-03T06:31:50;6.80;;;2.35;;
15536;SDS011;7870;52.448;13.270;2023-04-03T06:34:17;5.32;;;2.10;;
15536;SDS011;7870;52.448;13.270;2023-04-03T06:36:44;8.30;;;1.95;;
15536;SDS011;7870;52.448;13.270;2023-04-03T06:39:15;6.55;;;2.00;;
15536;SDS011;7870;52.448;13.270;2023-04-03T06:41:44;6.82;;;2.15;;
15536;SDS011;7870;52.448;13.270;2023-04-03T06:44:11;5.35;;;1.90;;
15536;SDS011;7870;52.448;13.270;2023-04-03T06:46:39;7.80;;;2.30;;
15536;SDS011;7870;52.448;13.270;2023-04-03T06:49:06;3.92;;;1.70;;
15536;SDS011;7870;52.448;13.270;2023-04-03T06:51:34;4.65;;;1.80;;
15536;SDS011;7870;52.448;13.270;2023-04-03T06:54:01;8.10;;;2.40;;
15536;SDS011;7870;52.448;13.270;2023-04-03T06:56:29;7.28;;;1.80;;
15536;SDS011;7870;52.448;13.270;2023-04-03T06:58:56;6.70;;;2.22;;
15536;SDS011;7870;52.448;13.270;2023-04-03T07:01:24;5.32;;;1.67;;
15536;SDS011;7870;52.448;13.270;2023-04-03T07:03:54;8.10;;;2.50;;
15536;SDS011;7870;52.448;13.270;2023-04-03T07:06:21;7.80;;;1.80;;
15536;SDS011;7870;52.448;13.270;2023-04-03T07:08:48;6.65;;;2.05;;
15536;SDS011;7870;52.448;13.270;2023-04-03T07:11:15;6.22;;;1.98;;
15536;SDS011;7870;52.448;13.270;2023-04-03T07:13:42;4.45;;;1.60;;
15536;SDS011;7870;52.448;13.270;2023-04-03T07:16:09;5.72;;;1.55;;
15536;SDS011;7870;52.448;13.270;2023-04-03T07:18:35;4.45;;;1.80;;
15536;SDS011;7870;52.448;13.270;2023-04-03T07:21:02;7.15;;;1.65;;
15536;SDS011;7870;52.448;13.270;2023-04-03T07:23:30;7.78;;;1.92;;
15536;SDS011;7870;52.448;13.270;2023-04-03T07:25:56;5.93;;;1.63;;
15536;SDS011;7870;52.448;13.270;2023-04-03T07:28:23;5.75;;;1.42;;
15536;SDS011;7870;52.448;13.270;2023-04-03T07:30:51;5.95;;;1.90;;
15536;SDS011;7870;52.448;13.270;2023-04-03T07:33:29;4.30;;;1.23;;
15536;SDS011;7870;52.448;13.270;2023-04-03T07:35:55;5.40;;;1.77;;
15536;SDS011;7870;52.448;13.270;2023-04-03T07:38:22;6.07;;;1.98;;
15536;SDS011;7870;52.448;13.270;2023-04-03T07:40:49;4.38;;;1.70;;
15536;SDS011;7870;52.448;13.270;2023-04-03T07:43:17;4.78;;;1.65;;
15536;SDS011;7870;52.448;13.270;2023-04-03T07:45:43;3.80;;;1.30;;
15536;SDS011;7870;52.448;13.270;2023-04-03T07:48:11;3.17;;;1.30;;
15536;SDS011;7870;52.448;13.270;2023-04-03T07:50:39;5.15;;;1.70;;
15536;SDS011;7870;52.448;13.270;2023-04-03T07:53:06;4.95;;;1.52;;
15536;SDS011;7870;52.448;13.270;2023-04-03T07:55:34;4.22;;;1.63;;
15536;SDS011;7870;52.448;13.270;2023-04-03T07:58:00;5.50;;;1.50;;
15536;SDS011;7870;52.448;13.270;2023-04-03T08:00:27;4.53;;;1.58;;
15536;SDS011;7870;52.448;13.270;2023-04-03T08:02:54;4.18;;;2.03;;
15536;SDS011;7870;52.448;13.270;2023-04-03T08:05:21;6.10;;;1.90;;
15536;SDS011;7870;52.448;13.270;2023-04-03T08:07:47;3.85;;;1.58;;
15536;SDS011;7870;52.448;13.270;2023-04-03T08:10:14;6.72;;;1.65;;
15536;SDS011;7870;52.448;13.270;2023-04-03T08:12:41;6.40;;;2.00;;
15536;SDS011;7870;52.448;13.270;2023-04-03T08:15:08;5.93;;;1.70;;
15536;SDS011;7870;52.448;13.270;2023-04-03T08:17:35;6.07;;;2.13;;
15536;SDS011;7870;52.448;13.270;2023-04-03T08:20:03;5.25;;;1.83;;
15536;SDS011;7870;52.448;13.270;2023-04-03T08:22:31;4.88;;;1.65;;
15536;SDS011;7870;52.448;13.270;2023-04-03T08:24:58;4.03;;;1.77;;
15536;SDS011;7870;52.448;13.270;2023-04-03T08:27:25;5.43;;;1.90;;
15536;SDS011;7870;52.448;13.270;2023-04-03T08:29:53;5.25;;;1.70;;
15536;SDS011;7870;52.448;13.270;2023-04-03T08:32:19;4.47;;;1.50;;
15536;SDS011;7870;52.448;13.270;2023-04-03T08:34:46;7.75;;;1.50;;
15536;SDS011;7870;52.448;13.270;2023-04-03T08:37:12;5.07;;;1.60;;
15536;SDS011;7870;52.448;13.270;2023-04-03T08:39:39;6.50;;;1.92;;
15536;SDS011;7870;52.448;13.270;2023-04-03T08:42:12;8.75;;;2.10;;
15536;SDS011;7870;52.448;13.270;2023-04-03T08:44:46;5.65;;;1.65;;
15536;SDS011;7870;52.448;13.270;2023-04-03T08:47:40;5.65;;;1.73;;
15536;SDS011;7870;52.448;13.270;2023-04-03T08:50:39;6.18;;;1.45;;
15536;SDS011;7870;52.448;13.270;2023-04-03T08:53:12;5.45;;;2.08;;
15536;SDS011;7870;52.448;13.270;2023-04-03T08:55:43;4.20;;;1.50;;
15536;SDS011;7870;52.448;13.270;2023-04-03T08:58:15;5.23;;;1.23;;
15536;SDS011;7870;52.448;13.270;2023-04-03T09:00:50;4.38;;;1.95;;
15536;SDS011;7870;52.448;13.270;2023-04-03T09:03:20;5.03;;;1.55;;
15536;SDS011;7870;52.448;13.270;2023-04-03T09:05:51;4.60;;;1.63;;
15536;SDS011;7870;52.448;13.270;2023-04-03T09:08:27;4.18;;;1.60;;
15536;SDS011;7870;52.448;13.270;2023-04-03T09:11:06;9.18;;;2.67;;
15536;SDS011;7870;52.448;13.270;2023-04-03T09:13:59;4.35;;;1.50;;
15536;SDS011;7870;52.448;13.270;2023-04-03T09:19:22;4.40;;;1.63;;
15536;SDS011;7870;52.448;13.270;2023-04-03T09:22:07;8.20;;;1.50;;
15536;SDS011;7870;52.448;13.270;2023-04-03T09:24:39;5.53;;;2.00;;
15536;SDS011;7870;52.448;13.270;2023-04-03T09:27:10;2.95;;;1.20;;
15536;SDS011;7870;52.448;13.270;2023-04-03T09:29:40;4.70;;;2.28;;
15536;SDS011;7870;52.448;13.270;2023-04-03T09:32:21;4.30;;;1.40;;
15536;SDS011;7870;52.448;13.270;2023-04-03T09:34:57;4.18;;;1.45;;
15536;SDS011;7870;52.448;13.270;2023-04-03T09:37:39;4.07;;;1.42;;
15536;SDS011;7870;52.448;13.270;2023-04-03T09:42:56;4.07;;;1.60;;
15536;SDS011;7870;52.448;13.270;2023-04-03T09:55:56;3.50;;;1.98;;
15536;SDS011;7870;52.448;13.270;2023-04-03T09:58:24;3.05;;;1.40;;
15536;SDS011;7870;52.448;13.270;2023-04-03T10:04:07;3.85;;;1.80;;
15536;SDS011;7870;52.448;13.270;2023-04-03T10:06:38;4.35;;;1.77;;
15536;SDS011;7870;52.448;13.270;2023-04-03T10:09:23;5.03;;;1.38;;
15536;SDS011;7870;52.448;13.270;2023-04-03T10:20:12;3.90;;;1.67;;
15536;SDS011;7870;52.448;13.270;2023-04-03T10:28:28;3.63;;;1.40;;
15536;SDS011;7870;52.448;13.270;2023-04-03T10:31:12;5.15;;;1.20;;
15536;SDS011;7870;52.448;13.270;2023-04-03T10:34:00;4.18;;;1.60;;
15536;SDS011;7870;52.448;13.270;2023-04-03T10:42:09;3.70;;;1.20;;
15536;SDS011;7870;52.448;13.270;2023-04-03T10:44:56;5.82;;;1.85;;
15536;SDS011;7870;52.448;13.270;2023-04-03T10:47:51;2.95;;;1.23;;
15536;SDS011;7870;52.448;13.270;2023-04-03T10:53:31;3.72;;;1.10;;
15536;SDS011;7870;52.448;13.270;2023-04-03T10:58:52;5.80;;;1.60;;
15536;SDS011;7870;52.448;13.270;2023-04-03T11:01:23;3.95;;;1.40;;
15536;SDS011;7870;52.448;13.270;2023-04-03T11:03:57;2.83;;;1.13;;
15536;SDS011;7870;52.448;13.270;2023-04-03T11:06:26;3.60;;;1.40;;
15536;SDS011;7870;52.448;13.270;2023-04-03T11:11:46;5.47;;;1.08;;
15536;SDS011;7870;52.448;13.270;2023-04-03T11:14:16;3.60;;;0.95;;
15536;SDS011;7870;52.448;13.270;2023-04-03T11:16:55;4.03;;;1.38;;
15536;SDS011;7870;52.448;13.270;2023-04-03T11:19:33;3.17;;;1.10;;
15536;SDS011;7870;52.448;13.270;2023-04-03T11:22:03;2.97;;;1.17;;
15536;SDS011;7870;52.448;13.270;2023-04-03T11:27:44;2.88;;;1.20;;
15536;SDS011;7870;52.448;13.270;2023-04-03T11:33:03;2.53;;;1.27;;
15536;SDS011;7870;52.448;13.270;2023-04-03T11:35:32;3.67;;;1.25;;
15536;SDS011;7870;52.448;13.270;2023-04-03T11:38:00;3.42;;;1.10;;
15536;SDS011;7870;52.448;13.270;2023-04-03T11:40:29;4.90;;;1.88;;
15536;SDS011;7870;52.448;13.270;2023-04-03T11:47:55;3.50;;;1.30;;
15536;SDS011;7870;52.448;13.270;2023-04-03T12:05:53;3.80;;;1.88;;
15536;SDS011;7870;52.448;13.270;2023-04-03T12:08:24;4.53;;;1.60;;
15536;SDS011;7870;52.448;13.270;2023-04-03T12:11:13;3.63;;;1.20;;
15536;SDS011;7870;52.448;13.270;2023-04-03T12:13:41;5.78;;;1.50;;
15536;SDS011;7870;52.448;13.270;2023-04-03T12:16:33;5.20;;;1.40;;
15536;SDS011;7870;52.448;13.270;2023-04-03T12:29:25;2.70;;;1.15;;
15536;SDS011;7870;52.448;13.270;2023-04-03T12:34:36;3.72;;;1.52;;
15536;SDS011;7870;52.448;13.270;2023-04-03T12:40:14;4.40;;;1.55;;
15536;SDS011;7870;52.448;13.270;2023-04-03T12:45:56;4.93;;;1.70;;
15536;SDS011;7870;52.448;13.270;2023-04-03T12:48:27;4.68;;;1.35;;
15536;SDS011;7870;52.448;13.270;2023-04-03T12:50:55;4.28;;;1.83;;
15536;SDS011;7870;52.448;13.270;2023-04-03T12:53:27;5.50;;;1.20;;
15536;SDS011;7870;52.448;13.270;2023-04-03T12:55:57;3.72;;;1.65;;
15536;SDS011;7870;52.448;13.270;2023-04-03T12:58:25;3.30;;;1.45;;
15536;SDS011;7870;52.448;13.270;2023-04-03T13:01:03;6.75;;;1.45;;
15536;SDS011;7870;52.448;13.270;2023-04-03T13:03:37;3.03;;;1.20;;
15536;SDS011;7870;52.448;13.270;2023-04-03T13:06:05;2.65;;;1.00;;
15536;SDS011;7870;52.448;13.270;2023-04-03T13:08:32;3.88;;;1.60;;
15536;SDS011;7870;52.448;13.270;2023-04-03T13:11:11;3.33;;;1.60;;
15536;SDS011;7870;52.448;13.270;2023-04-03T13:13:38;3.17;;;1.17;;
15536;SDS011;7870;52.448;13.270;2023-04-03T13:16:09;3.95;;;1.20;;
15536;SDS011;7870;52.448;13.270;2023-04-03T13:18:37;2.88;;;1.35;;
15536;SDS011;7870;52.448;13.270;2023-04-03T13:23:34;5.53;;;1.33;;
15536;SDS011;7870;52.448;13.270;2023-04-03T13:26:03;5.60;;;1.50;;
15536;SDS011;7870;52.448;13.270;2023-04-03T13:28:30;3.10;;;1.20;;
15536;SDS011;7870;52.448;13.270;2023-04-03T13:33:36;3.15;;;1.00;;
15536;SDS011;7870;52.448;13.270;2023-04-03T13:36:16;3.10;;;1.17;;
15536;SDS011;7870;52.448;13.270;2023-04-03T13:38:45;5.43;;;1.55;;
15536;SDS011;7870;52.448;13.270;2023-04-03T13:41:23;2.92;;;1.50;;
15536;SDS011;7870;52.448;13.270;2023-04-03T13:44:14;4.47;;;1.30;;
15536;SDS011;7870;52.448;13.270;2023-04-03T13:46:41;4.18;;;1.17;;
15536;SDS011;7870;52.448;13.270;2023-04-03T13:54:51;2.90;;;1.20;;
15536;SDS011;7870;52.448;13.270;2023-04-03T13:57:21;7.18;;;1.75;;
15536;SDS011;7870;52.448;13.270;2023-04-03T13:59:48;6.97;;;1.73;;
15536;SDS011;7870;52.448;13.270;2023-04-03T14:04:50;4.00;;;1.40;;
15536;SDS011;7870;52.448;13.270;2023-04-03T14:07:22;3.90;;;1.58;;
15536;SDS011;7870;52.448;13.270;2023-04-03T14:09:50;3.78;;;1.60;;
15536;SDS011;7870;52.448;13.270;2023-04-03T14:12:31;5.40;;;1.98;;
15536;SDS011;7870;52.448;13.270;2023-04-03T14:15:00;3.03;;;1.40;;
15536;SDS011;7870;52.448;13.270;2023-04-03T14:17:28;3.80;;;1.63;;
15536;SDS011;7870;52.448;13.270;2023-04-03T14:19:55;3.15;;;1.20;;
15536;SDS011;7870;52.448;13.270;2023-04-03T14:22:24;6.72;;;1.70;;
15536;SDS011;7870;52.448;13.270;2023-04-03T14:24:52;3.42;;;1.48;;
15536;SDS011;7870;52.448;13.270;2023-04-03T14:29:57;3.17;;;1.10;;
15536;SDS011;7870;52.448;13.270;2023-04-03T14:32:24;5.45;;;1.13;;
15536;SDS011;7870;52.448;13.270;2023-04-03T14:34:51;3.53;;;1.30;;
15536;SDS011;7870;52.448;13.270;2023-04-03T14:37:19;6.57;;;1.70;;
15536;SDS011;7870;52.448;13.270;2023-04-03T14:39:48;2.75;;;1.08;;
15536;SDS011;7870;52.448;13.270;2023-04-03T14:42:17;3.90;;;1.25;;
15536;SDS011;7870;52.448;13.270;2023-04-03T14:44:46;2.90;;;1.40;;
15536;SDS011;7870;52.448;13.270;2023-04-03T14:47:14;5.13;;;1.42;;
15536;SDS011;7870;52.448;13.270;2023-04-03T14:49:56;3.10;;;1.30;;
15536;SDS011;7870;52.448;13.270;2023-04-03T14:52:24;2.08;;;1.20;;
15536;SDS011;7870;52.448;13.270;2023-04-03T14:54:54;4.63;;;1.40;;
15536;SDS011;7870;52.448;13.270;2023-04-03T14:57:22;3.13;;;1.17;;
15536;SDS011;7870;52.448;13.270;2023-04-03T14:59:51;4.15;;;1.35;;
15536;SDS011;7870;52.448;13.270;2023-04-03T15:04:54;3.63;;;1.20;;
15536;SDS011;7870;52.448;13.270;2023-04-03T15:07:22;4.05;;;1.45;;
15536;SDS011;7870;52.448;13.270;2023-04-03T15:09:50;6.50;;;1.80;;
15536;SDS011;7870;52.448;13.270;2023-04-03T15:12:17;2.95;;;1.63;;
15536;SDS011;7870;52.448;13.270;2023-04-03T15:14:43;5.47;;;1.65;;
15536;SDS011;7870;52.448;13.270;2023-04-03T15:17:22;6.18;;;1.45;;
15536;SDS011;7870;52.448;13.270;2023-04-03T15:19:49;3.40;;;1.35;;
15536;SDS011;7870;52.448;13.270;2023-04-03T15:22:17;4.10;;;1.52;;
15536;SDS011;7870;52.448;13.270;2023-04-03T15:24:45;4.68;;;1.60;;
15536;SDS011;7870;52.448;13.270;2023-04-03T15:27:12;4.03;;;1.55;;
15536;SDS011;7870;52.448;13.270;2023-04-03T15:29:39;5.10;;;2.00;;
15536;SDS011;7870;52.448;13.270;2023-04-03T15:32:06;4.50;;;1.63;;
15536;SDS011;7870;52.448;13.270;2023-04-03T15:34:35;3.13;;;1.63;;
15536;SDS011;7870;52.448;13.270;2023-04-03T15:37:02;7.05;;;2.13;;
15536;SDS011;7870;52.448;13.270;2023-04-03T15:39:29;4.80;;;1.45;;
15536;SDS011;7870;52.448;13.270;2023-04-03T15:41:55;4.65;;;1.55;;
15536;SDS011;7870;52.448;13.270;2023-04-03T15:46:53;4.90;;;1.60;;
15536;SDS011;7870;52.448;13.270;2023-04-03T15:49:19;3.78;;;1.63;;
15536;SDS011;7870;52.448;13.270;2023-04-03T15:51:47;4.55;;;1.70;;
15536;SDS011;7870;52.448;13.270;2023-04-03T15:54:13;6.72;;;1.60;;
15536;SDS011;7870;52.448;13.270;2023-04-03T15:56:40;5.10;;;1.40;;
15536;SDS011;7870;52.448;13.270;2023-04-03T15:59:07;3.63;;;1.83;;
15536;SDS011;7870;52.448;13.270;2023-04-03T16:01:33;5.72;;;2.03;;
15536;SDS011;7870;52.448;13.270;2023-04-03T16:04:00;5.97;;;1.70;;
15536;SDS011;7870;52.448;13.270;2023-04-03T16:06:27;5.13;;;2.13;;
15536;SDS011;7870;52.448;13.270;2023-04-03T16:08:55;4.60;;;1.75;;
15536;SDS011;7870;52.448;13.270;2023-04-03T16:11:24;3.58;;;1.65;;
15536;SDS011;7870;52.448;13.270;2023-04-03T16:13:52;4.28;;;1.98;;
15536;SDS011;7870;52.448;13.270;2023-04-03T16:16:19;4.78;;;1.77;;
15536;SDS011;7870;52.448;13.270;2023-04-03T16:18:46;2.63;;;1.30;;
15536;SDS011;7870;52.448;13.270;2023-04-03T16:21:13;3.67;;;1.30;;
15536;SDS011;7870;52.448;13.270;2023-04-03T16:23:40;4.53;;;1.67;;
15536;SDS011;7870;52.448;13.270;2023-04-03T16:26:07;4.90;;;1.80;;
15536;SDS011;7870;52.448;13.270;2023-04-03T16:28:34;4.78;;;1.80;;
15536;SDS011;7870;52.448;13.270;2023-04-03T16:31:01;4.68;;;1.48;;
15536;SDS011;7870;52.448;13.270;2023-04-03T16:33:28;4.47;;;1.90;;
15536;SDS011;7870;52.448;13.270;2023-04-03T16:35:56;4.82;;;2.03;;
15536;SDS011;7870;52.448;13.270;2023-04-03T16:38:22;3.67;;;1.60;;
15536;SDS011;7870;52.448;13.270;2023-04-03T16:40:49;6.32;;;1.40;;
15536;SDS011;7870;52.448;13.270;2023-04-03T16:43:16;4.95;;;1.60;;
15536;SDS011;7870;52.448;13.270;2023-04-03T16:45:42;3.90;;;1.40;;
15536;SDS011;7870;52.448;13.270;2023-04-03T16:48:09;7.00;;;2.13;;
15536;SDS011;7870;52.448;13.270;2023-04-03T16:50:35;3.03;;;1.70;;
15536;SDS011;7870;52.448;13.270;2023-04-03T16:53:02;4.75;;;1.67;;
15536;SDS011;7870;52.448;13.270;2023-04-03T16:55:29;5.40;;;2.10;;
15536;SDS011;7870;52.448;13.270;2023-04-03T16:57:55;3.13;;;1.60;;
15536;SDS011;7870;52.448;13.270;2023-04-03T17:00:22;5.95;;;1.67;;
15536;SDS011;7870;52.448;13.270;2023-04-03T17:02:48;5.03;;;1.83;;